Time;durP1;ratioP1;P1;durP2;ratioP2;P2;SDS_P1;SDS_P2;PMS_P1;PMS_P2;Temp;Humidity;BMP_temperature;BMP_pressure;BME280_temperature;BME280_humidity;BME280_pressure;Samples;Min_cycle;Max_cycle;Signal;HPM_P1;HPM_P2
2023/01/22 00:01:14;;;;;;;11.17;7.03;;;-0.10;99.90;;;;;;5135882;27;20468;-31
2023/01/22 00:03:40;;;;;;;12.10;8.37;;;-0.10;99.90;;;;;;5136394;27;20047;-31
2023/01/22 00:06:06;;;;;;;14.27;8.70;;;0.00;1.00;;;;;;5136069;27;20047;-31
2023/01/22 00:08:33;;;;;;;11.70;8.40;;;0.00;1.00;;;;;;5099995;27;20134;-31
2023/01/22 00:10:59;;;;;;;10.97;6.70;;;0.10;99.90;;;;;;5135974;27;20130;-31
2023/01/22 00:13:26;;;;;;;10.37;7.30;;;0.10;1.00;;;;;;5135871;27;20039;-31
2023/01/22 00:15:52;;;;;;;13.33;7.80;;;0.20;99.90;;;;;;5117742;27;20078;-31
2023/01/22 00:18:19;;;;;;;10.03;6.77;;;0.20;99.90;;;;;;5135820;27;20077;-31
2023/01/22 00:20:54;;;;;;;13.40;7.80;;;0.20;99.90;;;;;;5117982;27;20051;-31
2023/01/22 00:23:20;;;;;;;12.43;7.40;;;0.20;99.90;;;;;;5136629;27;20435;-31
2023/01/22 00:25:46;;;;;;;11.77;6.50;;;0.20;99.90;;;;;;5117539;27;20047;-31
2023/01/22 00:28:12;;;;;;;11.63;7.57;;;0.20;99.90;;;;;;5136063;27;20088;-30
2023/01/22 00:30:38;;;;;;;11.87;7.40;;;0.10;99.90;;;;;;5135550;27;20047;-30
2023/01/22 00:33:05;;;;;;;13.13;7.77;;;0.10;99.90;;;;;;5135506;27;20103;-31
2023/01/22 00:35:32;;;;;;;12.77;7.27;;;0.00;99.90;;;;;;5118243;27;20469;-31
2023/01/22 00:37:58;;;;;;;14.43;7.90;;;-0.10;99.90;;;;;;5135519;27;20107;-31
2023/01/22 00:40:24;;;;;;;13.10;7.60;;;-0.20;99.90;;;;;;5136207;27;20469;-30
2023/01/22 00:42:49;;;;;;;16.20;8.70;;;-0.30;99.90;;;;;;5136182;27;20453;-31
2023/01/22 00:45:15;;;;;;;14.50;8.30;;;-0.40;99.90;;;;;;5135343;27;20496;-32
2023/01/22 00:47:41;;;;;;;13.23;8.83;;;-0.60;99.90;;;;;;5100394;27;20066;-31
2023/01/22 00:50:07;;;;;;;15.57;8.40;;;-0.70;99.90;;;;;;5135989;27;20051;-31
2023/01/22 00:52:34;;;;;;;18.27;9.10;;;-0.70;99.90;;;;;;5134858;27;20112;-31
2023/01/22 00:54:59;;;;;;;16.70;8.70;;;-0.80;1.00;;;;;;5099902;27;20435;-31
2023/01/22 00:57:25;;;;;;;18.93;9.57;;;-0.90;1.00;;;;;;5135368;27;20047;-31
2023/01/22 00:59:51;;;;;;;19.67;9.47;;;-1.00;1.00;;;;;;5135871;27;20380;-30
2023/01/22 01:02:17;;;;;;;19.97;10.43;;;-1.00;1.00;;;;;;5116837;27;20047;-31
2023/01/22 01:04:43;;;;;;;19.17;11.63;;;-1.10;1.00;;;;;;5116671;27;20129;-31
2023/01/22 01:07:08;;;;;;;22.77;11.27;;;-1.10;1.00;;;;;;5134935;27;20093;-31
2023/01/22 01:09:34;;;;;;;26.40;14.30;;;-1.00;5.10;;;;;;5134851;27;20047;-31
2023/01/22 01:12:00;;;;;;;23.77;12.63;;;-1.00;3.00;;;;;;5134860;27;20062;-31
2023/01/22 01:14:26;;;;;;;26.10;13.97;;;-1.00;69.00;;;;;;5134848;27;20130;-31
2023/01/22 01:16:52;;;;;;;29.47;14.30;;;-0.90;47.60;;;;;;5135107;27;20156;-31
2023/01/22 01:19:21;;;;;;;26.33;13.07;;;-0.90;99.90;;;;;;5134671;27;20102;-31
2023/01/22 01:21:47;;;;;;;31.33;14.63;;;-0.80;99.90;;;;;;5134800;27;20047;-31
2023/01/22 01:24:13;;;;;;;27.53;13.70;;;-0.80;99.90;;;;;;5134776;27;20050;-31
2023/01/22 01:26:40;;;;;;;26.60;14.57;;;-0.80;99.90;;;;;;5134684;27;20047;-31
2023/01/22 01:29:08;;;;;;;26.73;14.23;;;-0.70;99.90;;;;;;5134490;27;20043;-31
2023/01/22 01:31:35;;;;;;;28.43;14.07;;;-0.80;99.90;;;;;;5134713;27;20082;-31
2023/01/22 01:34:01;;;;;;;25.20;13.57;;;-0.80;99.90;;;;;;5134649;28;20442;-31
2023/01/22 01:36:27;;;;;;;29.50;15.33;;;-0.80;99.90;;;;;;5134568;28;20499;-32
2023/01/22 01:38:53;;;;;;;26.37;12.77;;;-0.80;99.90;;;;;;5134683;28;20148;-31
2023/01/22 01:41:22;;;;;;;28.87;15.10;;;-0.70;99.90;;;;;;5134587;28;20036;-31
2023/01/22 01:44:26;;;;;;;32.93;14.63;;;-0.70;99.90;;;;;;5116244;28;20039;-31
2023/01/22 01:47:04;;;;;;;25.73;13.40;;;-0.60;99.90;;;;;;5091614;28;20083;-31
2023/01/22 01:49:47;;;;;;;27.07;14.67;;;-0.60;99.90;;;;;;5129624;28;20104;-31
2023/01/22 01:52:13;;;;;;;;;;;-0.60;99.90;;;;;;5116882;28;20374;-31
2023/01/22 01:54:43;;;;;;;26.57;13.80;;;-0.60;99.90;;;;;;5134383;28;19983;-31
2023/01/22 01:57:15;;;;;;;24.47;13.23;;;-0.70;99.90;;;;;;5134468;28;20176;-31
2023/01/22 01:59:43;;;;;;;24.80;12.90;;;-0.70;99.90;;;;;;5117146;28;20115;-31
2023/01/22 02:02:09;;;;;;;24.63;13.10;;;-0.80;99.90;;;;;;5134639;28;20047;-31
2023/01/22 02:04:35;;;;;;;24.93;13.57;;;-0.70;99.90;;;;;;5116306;28;20043;-31
2023/01/22 02:07:03;;;;;;;21.83;12.27;;;-0.70;99.90;;;;;;5116069;28;20047;-32
2023/01/22 02:09:28;;;;;;;22.33;11.93;;;-0.70;99.90;;;;;;5134181;28;20501;-31
2023/01/22 02:11:54;;;;;;;20.80;11.80;;;-0.70;99.90;;;;;;5134291;28;20054;-31
2023/01/22 02:14:24;;;;;;;21.17;12.93;;;-0.80;99.90;;;;;;5099170;28;20039;-31
2023/01/22 02:17:11;;;;;;;25.97;12.87;;;-0.80;99.90;;;;;;5116156;28;20537;-31
2023/01/22 02:19:38;;;;;;;17.20;10.93;;;-0.80;99.90;;;;;;5116118;28;20501;-31
2023/01/22 02:22:41;;;;;;;25.40;11.83;;;-0.90;99.90;;;;;;5134167;28;20488;-31
2023/01/22 02:25:08;;;;;;;23.33;11.57;;;-0.80;99.90;;;;;;5131652;28;20192;-31
2023/01/22 02:27:34;;;;;;;22.90;12.80;;;-0.90;99.90;;;;;;5133794;28;20581;-31
2023/01/22 02:29:59;;;;;;;23.70;11.73;;;-0.80;99.90;;;;;;5115685;28;20122;-31
2023/01/22 02:32:27;;;;;;;22.20;13.00;;;-0.80;99.90;;;;;;5135960;27;20126;-31
2023/01/22 02:34:53;;;;;;;21.17;13.00;;;-0.80;99.90;;;;;;5139022;27;20096;-31
2023/01/22 02:37:19;;;;;;;21.17;11.93;;;-0.70;99.90;;;;;;5137828;27;20430;-31
2023/01/22 02:39:44;;;;;;;23.27;11.90;;;-0.30;99.90;;;;;;5120260;27;20389;-32
2023/01/22 02:42:10;;;;;;;27.20;13.00;;;-0.60;99.90;;;;;;5138110;27;20383;-31
2023/01/22 02:44:36;;;;;;;31.53;13.47;;;-0.50;99.90;;;;;;5137663;27;20204;-31
2023/01/22 02:47:02;;;;;;;26.37;13.63;;;-0.40;99.90;;;;;;5137605;27;20043;-31
2023/01/22 02:49:27;;;;;;;22.67;12.87;;;-0.30;99.90;;;;;;5138347;27;20347;-31
2023/01/22 02:51:53;;;;;;;26.00;13.57;;;-0.20;99.90;;;;;;5137527;27;20389;-31
2023/01/22 02:54:19;;;;;;;22.50;12.57;;;-0.10;99.90;;;;;;5137826;27;20051;-31
2023/01/22 02:56:45;;;;;;;25.67;11.50;;;0.00;99.90;;;;;;5137774;27;20476;-31
2023/01/22 02:59:10;;;;;;;29.57;12.20;;;0.10;99.90;;;;;;5119461;27;20469;-31
2023/01/22 03:01:36;;;;;;;20.97;11.43;;;0.10;99.90;;;;;;5137928;27;20488;-31
2023/01/22 03:04:09;;;;;;;22.07;12.30;;;0.20;99.90;;;;;;5118867;27;20131;-31
2023/01/22 03:06:43;;;;;;;22.33;10.52;;;0.30;99.90;;;;;;5137399;27;20120;-31
2023/01/22 03:09:11;;;;;;;24.87;11.20;;;0.30;99.90;;;;;;5137385;27;20107;-30
2023/01/22 03:11:40;;;;;;;22.77;9.93;;;0.30;99.90;;;;;;5137443;27;20409;-31
2023/01/22 03:22:21;;;;;;;12.07;7.63;;;0.40;99.90;;;;;;5137640;27;20069;-31
2023/01/22 03:24:51;;;;;;;14.37;7.47;;;0.40;99.90;;;;;;5136920;27;20100;-30
2023/01/22 03:27:22;;;;;;;18.13;7.27;;;0.40;99.90;;;;;;5137633;27;20094;-31
2023/01/22 03:29:49;;;;;;;16.00;7.30;;;0.50;99.90;;;;;;5137318;27;20083;-31
2023/01/22 03:32:14;;;;;;;13.60;7.20;;;0.40;99.90;;;;;;5136865;27;20047;-31
2023/01/22 03:34:40;;;;;;;12.13;7.10;;;0.30;99.90;;;;;;5137258;27;20039;-31
2023/01/22 03:37:08;;;;;;;12.00;6.77;;;0.40;99.90;;;;;;5136711;27;20043;-30
2023/01/22 03:39:34;;;;;;;13.20;6.57;;;0.70;99.90;;;;;;5118556;27;20473;-30
2023/01/22 03:41:59;;;;;;;11.13;4.50;;;0.40;99.90;;;;;;5137107;27;20050;-30
2023/01/22 03:44:25;;;;;;;11.43;5.40;;;0.40;1.00;;;;;;5135305;27;20043;-32
2023/01/22 03:46:51;;;;;;;11.03;5.93;;;0.60;53.40;;;;;;5137129;27;20047;-31
2023/01/22 03:49:17;;;;;;;7.07;5.27;;;0.50;1.00;;;;;;5118122;27;20051;-31
2023/01/22 03:51:43;;;;;;;8.03;4.57;;;0.60;99.90;;;;;;5136666;27;20047;-31
2023/01/22 03:54:13;;;;;;;10.23;5.30;;;0.50;99.90;;;;;;5136548;27;20073;-31
2023/01/22 03:56:40;;;;;;;7.93;4.40;;;0.60;99.90;;;;;;5117943;27;20112;-32
2023/01/22 03:59:07;;;;;;;10.97;5.77;;;0.60;99.90;;;;;;5136289;27;20043;-30
2023/01/22 04:01:33;;;;;;;10.33;5.43;;;1.20;78.00;;;;;;5136194;27;20492;-31
2023/01/22 04:03:59;;;;;;;8.87;4.77;;;0.60;90.90;;;;;;5136356;27;20135;-31
2023/01/22 04:06:25;;;;;;;11.70;5.50;;;0.60;1.00;;;;;;5136382;27;20039;-30
2023/01/22 04:08:53;;;;;;;12.17;5.70;;;0.50;82.60;;;;;;5117821;27;20070;-31
2023/01/22 04:11:20;;;;;;;10.17;5.43;;;0.50;1.00;;;;;;5135955;27;20096;-30
2023/01/22 04:13:45;;;;;;;9.40;5.53;;;0.60;1.00;;;;;;5135937;27;20042;-30
2023/01/22 04:16:12;;;;;;;8.87;5.03;;;0.60;1.00;;;;;;5135865;27;20039;-31
2023/01/22 04:18:38;;;;;;;8.03;5.77;;;0.60;99.90;;;;;;5136096;27;20039;-31
2023/01/22 04:21:04;;;;;;;13.63;5.40;;;0.60;1.00;;;;;;5117548;27;20047;-31
2023/01/22 04:23:30;;;;;;;16.63;7.10;;;0.70;1.00;;;;;;5135767;27;20047;-30
2023/01/22 04:25:56;;;;;;;10.37;5.13;;;0.70;1.00;;;;;;5117125;27;20393;-30
2023/01/22 04:28:22;;;;;;;7.63;4.80;;;0.80;72.00;;;;;;5135485;27;20043;-30
2023/01/22 04:30:50;;;;;;;7.33;5.23;;;0.90;1.00;;;;;;5136154;27;20092;-30
2023/01/22 04:33:16;;;;;;;11.47;4.60;;;0.80;1.00;;;;;;5100495;27;20546;-31
2023/01/22 04:35:42;;;;;;;10.73;5.30;;;0.80;1.00;;;;;;5135517;27;20039;-30
2023/01/22 04:38:12;;;;;;;14.33;5.97;;;0.80;1.00;;;;;;5135465;27;20039;-30
2023/01/22 04:40:38;;;;;;;9.03;4.90;;;0.80;1.00;;;;;;5136230;27;20056;-30
2023/01/22 04:43:05;;;;;;;8.47;5.50;;;0.80;99.90;;;;;;5117083;27;20503;-30
2023/01/22 04:45:31;;;;;;;9.80;5.17;;;0.90;7.20;;;;;;5135939;27;20077;-30
2023/01/22 04:47:58;;;;;;;9.23;4.70;;;0.80;29.80;;;;;;5117651;27;20043;-30
2023/01/22 04:50:27;;;;;;;7.60;4.40;;;0.80;1.00;;;;;;5135241;27;20058;-30
2023/01/22 04:52:55;;;;;;;9.07;4.80;;;1.00;1.00;;;;;;5135091;27;20086;-30
2023/01/22 04:55:22;;;;;;;9.73;6.33;;;0.90;1.00;;;;;;5116595;27;20055;-30
2023/01/22 04:57:47;;;;;;;9.27;5.47;;;1.10;1.00;;;;;;5117020;27;20142;-30
2023/01/22 05:00:14;;;;;;;9.67;5.13;;;0.90;99.90;;;;;;5117808;27;20131;-30
2023/01/22 05:02:40;;;;;;;10.30;4.97;;;0.90;1.00;;;;;;5116653;27;20047;-30
2023/01/22 05:05:07;;;;;;;10.90;4.90;;;1.20;1.00;;;;;;5117642;27;20047;-30
2023/01/22 05:07:34;;;;;;;10.10;4.60;;;0.90;1.00;;;;;;5134897;27;20047;-30
2023/01/22 05:09:59;;;;;;;8.33;5.23;;;0.90;99.90;;;;;;5134948;27;20051;-30
2023/01/22 05:12:26;;;;;;;8.20;4.63;;;0.90;99.90;;;;;;5134894;27;20054;-30
2023/01/22 05:14:51;;;;;;;8.57;5.07;;;1.00;99.90;;;;;;5134921;27;20047;-31
2023/01/22 05:17:17;;;;;;;7.17;4.73;;;1.00;99.90;;;;;;5117033;27;20043;-31
2023/01/22 05:19:43;;;;;;;7.93;4.33;;;1.00;99.90;;;;;;5116973;28;20050;-30
2023/01/22 05:22:09;;;;;;;7.93;4.80;;;1.00;99.90;;;;;;5134801;27;20065;-31
2023/01/22 05:24:35;;;;;;;7.23;3.73;;;1.00;1.00;;;;;;5134766;27;20039;-32
2023/01/22 05:27:00;;;;;;;8.80;4.37;;;1.00;1.00;;;;;;5099801;27;20075;-30
2023/01/22 05:29:26;;;;;;;7.97;4.33;;;1.00;1.00;;;;;;5116274;27;20070;-30
2023/01/22 05:31:52;;;;;;;11.73;4.50;;;1.00;99.90;;;;;;5117370;28;20050;-31
2023/01/22 05:34:18;;;;;;;11.07;4.70;;;1.10;99.90;;;;;;5116338;28;20054;-31
2023/01/22 05:36:44;;;;;;;13.13;5.60;;;1.00;99.90;;;;;;5116523;28;20104;-31
2023/01/22 05:39:10;;;;;;;9.80;5.03;;;1.00;1.00;;;;;;5116175;28;20035;-30
2023/01/22 05:41:35;;;;;;;8.33;5.03;;;1.00;1.00;;;;;;5134588;28;20045;-30
2023/01/22 05:44:03;;;;;;;10.20;4.47;;;1.00;1.00;;;;;;5117027;28;20047;-30
2023/01/22 05:46:28;;;;;;;9.07;4.33;;;0.90;1.00;;;;;;5117263;28;20047;-30
2023/01/22 05:48:55;;;;;;;9.93;4.40;;;1.00;1.00;;;;;;5116416;28;20039;-30
2023/01/22 05:51:21;;;;;;;7.27;4.83;;;1.00;99.90;;;;;;5116724;28;20058;-30
2023/01/22 05:53:47;;;;;;;7.17;4.57;;;1.00;1.00;;;;;;5134360;28;20059;-30
2023/01/22 05:56:12;;;;;;;9.93;4.13;;;1.10;1.00;;;;;;5134457;28;20485;-31
2023/01/22 05:58:38;;;;;;;7.63;4.40;;;1.00;1.00;;;;;;5134399;28;20066;-31
2023/01/22 06:01:04;;;;;;;9.80;4.37;;;1.00;1.00;;;;;;5116598;28;20096;-31
2023/01/22 06:03:30;;;;;;;9.63;4.38;;;1.00;1.00;;;;;;5134318;28;20088;-30
2023/01/22 06:06:00;;;;;;;7.07;4.27;;;1.00;1.00;;;;;;5135147;27;20118;-33
2023/01/22 06:08:26;;;;;;;8.33;4.10;;;1.00;99.90;;;;;;5138305;27;20053;-31
2023/01/22 06:10:58;;;;;;;7.67;4.63;;;1.00;1.00;;;;;;5120018;27;20104;-30
2023/01/22 06:13:24;;;;;;;8.63;3.75;;;1.00;99.90;;;;;;5103530;27;20084;-31
2023/01/22 06:15:52;;;;;;;5.13;3.77;;;1.00;1.00;;;;;;5120226;27;20039;-30
2023/01/22 06:18:19;;;;;;;10.43;4.03;;;1.00;1.00;;;;;;5138242;27;20118;-31
2023/01/22 06:20:46;;;;;;;6.50;4.07;;;1.00;99.90;;;;;;5120917;27;20043;-30
2023/01/22 06:23:12;;;;;;;9.37;4.43;;;1.00;1.00;;;;;;5138124;27;20054;-31
2023/01/22 06:25:37;;;;;;;7.70;3.40;;;1.00;1.00;;;;;;5138138;27;20042;-31
2023/01/22 06:28:03;;;;;;;11.70;4.00;;;1.00;99.90;;;;;;5137944;27;20039;-30
2023/01/22 06:30:29;;;;;;;10.83;4.30;;;1.00;1.00;;;;;;5137876;27;20047;-31
2023/01/22 06:32:54;;;;;;;9.20;3.90;;;1.10;99.90;;;;;;5138469;27;20173;-30
2023/01/22 06:35:20;;;;;;;8.23;3.60;;;1.00;1.00;;;;;;5138486;27;20369;-30
2023/01/22 06:37:47;;;;;;;7.73;3.83;;;1.00;99.90;;;;;;5137821;27;20039;-31
2023/01/22 06:40:12;;;;;;;6.77;3.70;;;0.90;99.90;;;;;;5138632;27;20121;-30
2023/01/22 06:42:38;;;;;;;8.02;3.63;;;0.90;1.00;;;;;;5138020;27;20366;-30
2023/01/22 06:45:05;;;;;;;10.13;3.70;;;1.20;1.00;;;;;;5137736;27;20069;-31
2023/01/22 06:47:30;;;;;;;9.43;4.30;;;0.90;1.00;;;;;;5119171;27;20045;-31
2023/01/22 06:49:56;;;;;;;8.43;4.33;;;1.30;99.90;;;;;;5119432;27;20051;-30
2023/01/22 06:52:22;;;;;;;7.07;3.67;;;0.90;1.00;;;;;;5119912;27;20138;-30
2023/01/22 06:54:47;;;;;;;9.55;4.05;;;0.90;1.00;;;;;;5138185;27;20062;-30
2023/01/22 06:57:13;;;;;;;7.27;3.60;;;0.90;1.00;;;;;;5138371;27;20047;-30
2023/01/22 06:59:39;;;;;;;6.57;3.23;;;0.90;1.00;;;;;;5137395;27;20381;-30
2023/01/22 07:02:05;;;;;;;8.90;4.53;;;1.00;1.00;;;;;;5119624;27;20047;-30
2023/01/22 07:04:31;;;;;;;13.20;4.70;;;0.90;1.00;;;;;;5137308;27;20508;-31
2023/01/22 07:06:56;;;;;;;9.80;4.13;;;1.00;1.00;;;;;;5137580;27;20043;-30
2023/01/22 07:09:22;;;;;;;8.60;3.90;;;0.90;1.00;;;;;;5118884;27;20568;-30
2023/01/22 07:11:48;;;;;;;6.57;3.80;;;0.90;20.20;;;;;;5102050;27;20047;-30
2023/01/22 07:14:14;;;;;;;8.77;4.40;;;0.90;1.00;;;;;;5137123;27;20507;-31
2023/01/22 07:16:39;;;;;;;10.57;3.92;;;0.90;1.00;;;;;;5101756;27;20133;-30
2023/01/22 07:19:05;;;;;;;7.37;4.23;;;0.90;99.90;;;;;;5136740;27;20043;-30
2023/01/22 07:21:31;;;;;;;8.63;4.57;;;0.90;1.00;;;;;;5137552;27;20043;-31
2023/01/22 07:23:56;;;;;;;7.17;4.53;;;0.80;1.00;;;;;;5101945;27;20077;-30
2023/01/22 07:26:22;;;;;;;7.97;4.43;;;0.90;1.00;;;;;;5119095;27;20050;-30
2023/01/22 07:28:48;;;;;;;27.00;6.53;;;0.90;1.00;;;;;;5136688;27;20069;-30
2023/01/22 07:31:14;;;;;;;9.13;4.40;;;0.80;1.00;;;;;;5101940;27;20039;-30
2023/01/22 07:33:40;;;;;;;6.33;4.50;;;0.80;1.00;;;;;;5119035;27;20081;-31
2023/01/22 07:36:06;;;;;;;9.23;4.80;;;0.80;1.00;;;;;;5101490;27;20046;-30
2023/01/22 07:38:32;;;;;;;7.60;4.50;;;0.80;1.00;;;;;;5101868;27;20057;-30
2023/01/22 07:41:05;;;;;;;9.07;4.43;;;0.80;1.00;;;;;;5101948;27;20042;-31
2023/01/22 07:43:31;;;;;;;7.47;4.50;;;0.80;1.00;;;;;;5137205;27;20104;-30
2023/01/22 07:46:03;;;;;;;8.40;5.30;;;0.80;1.00;;;;;;5137081;27;20092;-31
2023/01/22 07:48:29;;;;;;;8.47;5.50;;;0.90;99.90;;;;;;5136120;27;20545;-30
2023/01/22 07:51:05;;;;;;;8.80;4.93;;;0.80;99.90;;;;;;5118159;27;20044;-31
2023/01/22 07:53:32;;;;;;;10.73;4.80;;;0.80;99.90;;;;;;5136154;27;20541;-30
2023/01/22 07:56:00;;;;;;;8.70;4.97;;;0.80;1.00;;;;;;5136321;27;20092;-31
2023/01/22 07:58:26;;;;;;;9.27;4.53;;;0.80;1.00;;;;;;5136634;27;20046;-30
2023/01/22 08:00:52;;;;;;;8.87;4.43;;;0.80;99.90;;;;;;5136272;27;20043;-30
2023/01/22 08:03:17;;;;;;;14.30;4.57;;;0.80;99.90;;;;;;5136725;27;20053;-30
2023/01/22 08:05:43;;;;;;;12.27;4.43;;;0.80;99.90;;;;;;5136088;27;20083;-30
2023/01/22 08:08:15;;;;;;;10.52;4.57;;;0.80;1.00;;;;;;5118291;27;20039;-31
2023/01/22 08:10:41;;;;;;;9.05;4.70;;;0.80;1.00;;;;;;5136040;27;20045;-30
2023/01/22 08:13:07;;;;;;;8.98;5.15;;;0.70;99.90;;;;;;5118423;27;20150;-31
2023/01/22 08:15:32;;;;;;;16.17;5.85;;;0.80;99.90;;;;;;5135946;27;20122;-30
2023/01/22 08:17:59;;;;;;;11.83;6.50;;;0.70;99.90;;;;;;5136713;27;20461;-30
2023/01/22 08:20:25;;;;;;;9.40;5.80;;;0.70;99.90;;;;;;5135852;27;20408;-31
2023/01/22 08:22:57;;;;;;;9.82;6.07;;;0.70;1.00;;;;;;5083548;27;20047;-30
2023/01/22 08:25:23;;;;;;;11.20;6.30;;;0.90;1.00;;;;;;5135783;27;20051;-30
2023/01/22 08:27:48;;;;;;;8.15;5.15;;;0.70;99.90;;;;;;5083657;27;20046;-30
2023/01/22 08:30:14;;;;;;;11.93;5.57;;;0.70;1.00;;;;;;5134835;27;20043;-30
2023/01/22 08:32:40;;;;;;;11.45;5.88;;;0.70;99.90;;;;;;5135681;27;20054;-30
2023/01/22 08:35:07;;;;;;;8.23;5.13;;;0.70;99.90;;;;;;5135610;27;20120;-30
2023/01/22 08:37:33;;;;;;;8.65;5.70;;;0.60;1.00;;;;;;5135422;27;20125;-30
2023/01/22 08:39:59;;;;;;;8.88;5.13;;;0.60;99.90;;;;;;5135430;27;20187;-30
2023/01/22 08:42:24;;;;;;;10.53;5.27;;;0.60;1.00;;;;;;5135381;27;20099;-30
2023/01/22 08:44:50;;;;;;;9.38;6.13;;;0.60;1.00;;;;;;5100045;27;20473;-30
2023/01/22 08:47:16;;;;;;;9.35;6.05;;;0.90;1.00;;;;;;5135263;27;20054;-30
2023/01/22 08:49:42;;;;;;;8.85;6.25;;;0.70;11.90;;;;;;5135490;27;20066;-31
2023/01/22 08:52:07;;;;;;;10.48;6.18;;;0.70;1.00;;;;;;5116958;27;20419;-30
2023/01/22 08:54:33;;;;;;;8.57;6.28;;;0.70;99.90;;;;;;5096508;28;20078;-30
2023/01/22 08:56:59;;;;;;;8.82;6.20;;;1.00;1.00;;;;;;5076411;28;20052;-30
2023/01/22 08:59:24;;;;;;;9.98;7.05;;;0.80;94.40;;;;;;5094514;28;20043;-30
2023/01/22 09:01:50;;;;;;;13.13;6.95;;;0.80;1.00;;;;;;5094172;28;20113;-30
2023/01/22 09:04:16;;;;;;;10.50;5.78;;;0.80;1.00;;;;;;5094973;28;20065;-30
2023/01/22 09:06:42;;;;;;;8.27;5.60;;;0.70;1.00;;;;;;5094684;28;20070;-31
2023/01/22 09:09:07;;;;;;;11.63;6.05;;;0.70;1.00;;;;;;5093689;28;20392;-31
2023/01/22 09:11:33;;;;;;;11.00;5.33;;;0.60;1.00;;;;;;5094651;28;20047;-30
2023/01/22 09:13:59;;;;;;;7.70;6.35;;;0.50;1.00;;;;;;5094054;28;20075;-30
2023/01/22 09:16:26;;;;;;;7.75;6.03;;;0.50;24.20;;;;;;5094244;28;20472;-31
2023/01/22 09:18:53;;;;;;;10.43;7.07;;;0.50;45.80;;;;;;5093940;28;20044;-30
2023/01/22 09:21:19;;;;;;;7.57;6.43;;;0.50;1.00;;;;;;5092702;28;20055;-30
2023/01/22 09:23:45;;;;;;;9.40;5.77;;;0.50;1.00;;;;;;5092751;28;20048;-30
2023/01/22 09:26:11;;;;;;;8.70;5.87;;;0.50;1.00;;;;;;5094142;28;20051;-31
2023/01/22 09:28:37;;;;;;;9.57;6.50;;;0.50;1.00;;;;;;5075558;28;20058;-30
2023/01/22 09:31:03;;;;;;;10.57;6.57;;;0.50;1.00;;;;;;5075983;28;20055;-30
2023/01/22 09:33:29;;;;;;;11.27;6.30;;;0.40;1.00;;;;;;5093098;28;20083;-30
2023/01/22 09:36:15;;;;;;;13.40;6.97;;;0.40;1.00;;;;;;5093459;28;20109;-31
2023/01/22 09:38:41;;;;;;;8.73;6.47;;;0.40;1.00;;;;;;5092665;28;20036;-30
2023/01/22 09:41:24;;;;;;;10.20;6.93;;;0.80;1.00;;;;;;5094593;28;20108;-30
2023/01/22 09:44:10;;;;;;;9.43;7.10;;;0.30;1.00;;;;;;5098318;28;20371;-30
2023/01/22 09:46:47;;;;;;;10.87;6.23;;;0.30;5.30;;;;;;5098427;28;20048;-30
2023/01/22 09:49:23;;;;;;;10.03;6.40;;;0.50;39.60;;;;;;5098682;28;20487;-30
2023/01/22 09:51:55;;;;;;;9.27;6.10;;;0.30;99.90;;;;;;5098351;28;20055;-31
2023/01/22 09:54:22;;;;;;;11.60;6.15;;;0.40;99.90;;;;;;5128266;27;20046;-30
2023/01/22 09:56:50;;;;;;;8.73;5.70;;;0.40;99.90;;;;;;5138640;27;20488;-30
2023/01/22 09:59:19;;;;;;;9.47;5.83;;;0.50;99.90;;;;;;5120723;27;20051;-30
2023/01/22 10:01:51;;;;;;;11.82;6.28;;;0.60;99.90;;;;;;5120455;27;20134;-31
2023/01/22 10:04:33;;;;;;;10.40;7.43;;;0.70;99.90;;;;;;5139177;27;20051;-30
2023/01/22 10:07:00;;;;;;;8.75;5.93;;;0.80;92.10;;;;;;5139317;27;20042;-30
2023/01/22 10:09:31;;;;;;;9.85;6.18;;;0.90;38.60;;;;;;5138339;27;20050;-30
2023/01/22 10:11:58;;;;;;;10.15;5.95;;;1.00;1.30;;;;;;5138454;27;20065;-31
2023/01/22 10:14:27;;;;;;;10.10;5.70;;;1.10;1.00;;;;;;5138293;27;20041;-31
2023/01/22 10:16:53;;;;;;;10.82;5.30;;;1.20;1.00;;;;;;5138242;27;20050;-31
2023/01/22 10:19:41;;;;;;;10.77;6.68;;;1.20;1.00;;;;;;5138195;27;20108;-30
2023/01/22 10:22:17;;;;;;;10.68;6.63;;;1.30;1.00;;;;;;5119987;27;20054;-30
2023/01/22 10:24:43;;;;;;;13.57;7.07;;;1.30;99.90;;;;;;5139022;27;20047;-30
2023/01/22 10:27:15;;;;;;;10.13;6.20;;;1.40;1.00;;;;;;5119923;27;20074;-31
2023/01/22 10:29:45;;;;;;;10.50;5.45;;;1.40;1.00;;;;;;5119753;27;20039;-30
2023/01/22 10:32:24;;;;;;;14.70;5.28;;;1.40;99.90;;;;;;5119622;27;20073;-30
2023/01/22 10:35:02;;;;;;;6.88;4.97;;;1.40;1.00;;;;;;5138034;27;20047;-30
2023/01/22 10:37:28;;;;;;;8.75;5.20;;;1.40;99.90;;;;;;5137940;27;20488;-30
2023/01/22 10:39:58;;;;;;;11.13;6.22;;;1.40;1.00;;;;;;5119912;27;20362;-30
2023/01/22 10:42:28;;;;;;;7.35;4.97;;;1.60;99.90;;;;;;5137765;27;20473;-30
2023/01/22 10:45:15;;;;;;;9.93;5.88;;;1.70;99.90;;;;;;5137657;27;20035;-30
2023/01/22 10:47:40;;;;;;;8.85;6.00;;;1.70;99.90;;;;;;5137655;27;20047;-31
2023/01/22 10:50:13;;;;;;;8.38;5.80;;;1.80;1.00;;;;;;5137671;27;20204;-31
2023/01/22 10:52:46;;;;;;;6.73;5.60;;;1.80;99.90;;;;;;5101867;27;20051;-31
2023/01/22 10:55:36;;;;;;;7.65;5.85;;;1.80;99.90;;;;;;5137578;27;20277;-30
2023/01/22 10:58:13;;;;;;;9.90;5.63;;;1.80;1.00;;;;;;5137572;27;20043;-30
2023/01/22 11:00:39;;;;;;;9.35;6.13;;;1.90;99.90;;;;;;5137481;27;20047;-30
2023/01/22 11:03:23;;;;;;;11.07;5.28;;;2.00;99.90;;;;;;5137392;27;20051;-34
2023/01/22 11:05:58;;;;;;;8.20;5.72;;;2.10;99.90;;;;;;5119842;27;20050;-30
2023/01/22 11:08:29;;;;;;;10.00;6.63;;;2.10;1.00;;;;;;5119739;27;20488;-31
2023/01/22 11:11:03;;;;;;;8.68;5.10;;;2.10;99.90;;;;;;5119720;27;20043;-31
2023/01/22 11:13:50;;;;;;;8.32;6.22;;;2.20;99.90;;;;;;5136914;27;20589;-30
2023/01/22 11:16:21;;;;;;;10.73;5.97;;;2.30;99.90;;;;;;5137202;27;20408;-30
2023/01/22 11:19:05;;;;;;;9.45;5.60;;;2.30;99.90;;;;;;5119578;27;20046;-31
2023/01/22 11:21:49;;;;;;;8.98;4.97;;;2.40;1.00;;;;;;5137821;27;20043;-31
2023/01/22 11:24:35;;;;;;;9.75;5.45;;;2.40;99.90;;;;;;5137872;27;20043;-31
2023/01/22 11:27:07;;;;;;;9.82;5.55;;;2.50;1.00;;;;;;5119110;27;20047;-30
2023/01/22 11:29:47;;;;;;;8.40;5.07;;;2.60;1.00;;;;;;5118345;27;20047;-32
2023/01/22 11:32:40;;;;;;;8.15;4.82;;;2.70;99.90;;;;;;5137420;27;20043;-30
2023/01/22 11:35:33;;;;;;;9.75;5.65;;;2.70;1.00;;;;;;5118663;27;20485;-30
2023/01/22 11:38:10;;;;;;;7.95;4.22;;;2.80;2.40;;;;;;5137613;27;20122;-31
2023/01/22 11:40:59;;;;;;;8.98;4.68;;;2.80;99.90;;;;;;5137513;27;20046;-31
2023/01/22 11:43:43;;;;;;;8.70;4.00;;;2.90;99.90;;;;;;5137741;27;20058;-30
2023/01/22 11:46:24;;;;;;;8.48;3.97;;;2.90;99.90;;;;;;5136556;27;20095;-31
2023/01/22 11:49:04;;;;;;;8.30;4.05;;;2.80;99.90;;;;;;5119078;27;20066;-31
2023/01/22 11:51:47;;;;;;;4.95;3.95;;;2.80;99.90;;;;;;5136750;27;20091;-30
2023/01/22 11:54:27;;;;;;;7.38;4.43;;;2.80;1.00;;;;;;5136874;27;20119;-31
2023/01/22 11:57:11;;;;;;;9.13;4.28;;;2.80;99.90;;;;;;5118561;27;20046;-31
2023/01/22 12:00:16;;;;;;;8.48;4.47;;;2.80;99.90;;;;;;5136246;27;20484;-31
2023/01/22 12:03:06;;;;;;;9.73;4.65;;;2.80;1.00;;;;;;5136247;27;20047;-32
2023/01/22 12:06:11;;;;;;;9.07;4.95;;;2.80;99.90;;;;;;5135077;27;20047;-31
2023/01/22 12:08:51;;;;;;;6.00;4.35;;;2.80;99.90;;;;;;5136048;27;20382;-30
2023/01/22 12:11:42;;;;;;;10.50;5.90;;;2.80;90.60;;;;;;5136092;27;20050;-30
2023/01/22 12:14:38;;;;;;;11.02;4.65;;;2.90;9.80;;;;;;5136275;27;20529;-30
2023/01/22 12:17:17;;;;;;;9.27;4.60;;;3.00;26.20;;;;;;5136251;27;20051;-31
2023/01/22 12:20:18;;;;;;;7.15;4.80;;;2.90;99.90;;;;;;5136213;27;20050;-30
2023/01/22 12:22:51;;;;;;;7.88;4.90;;;2.90;1.00;;;;;;5118568;27;20130;-31
2023/01/22 12:25:32;;;;;;;14.77;4.80;;;2.90;99.90;;;;;;5136035;27;20047;-31
2023/01/22 12:28:17;;;;;;;8.57;4.55;;;2.90;1.00;;;;;;5135202;27;20050;-33
2023/01/22 12:30:55;;;;;;;10.75;5.03;;;2.90;99.90;;;;;;5115112;27;20043;-31
2023/01/22 12:33:30;;;;;;;9.95;4.38;;;2.90;99.90;;;;;;5135564;27;20477;-30
2023/01/22 12:36:01;;;;;;;6.65;4.13;;;2.80;1.00;;;;;;5117715;27;20039;-31
2023/01/22 12:38:47;;;;;;;7.28;4.03;;;2.80;1.00;;;;;;5100837;27;20055;-31
2023/01/22 12:41:44;;;;;;;10.02;4.63;;;2.70;99.90;;;;;;5117116;27;20053;-30
2023/01/22 12:44:13;;;;;;;10.35;5.10;;;2.80;99.90;;;;;;5135438;27;20039;-30
2023/01/22 12:47:00;;;;;;;10.55;5.68;;;2.80;99.90;;;;;;5135878;27;20051;-32
2023/01/22 12:49:26;;;;;;;7.45;4.38;;;2.80;1.00;;;;;;5135273;27;20047;-30
2023/01/22 12:51:54;;;;;;;11.05;5.32;;;2.80;99.90;;;;;;5116967;27;20047;-30
2023/01/22 12:54:26;;;;;;;8.32;4.85;;;2.80;99.90;;;;;;5135141;27;20403;-30
2023/01/22 12:57:10;;;;;;;11.05;5.13;;;3.00;1.00;;;;;;5135816;27;20062;-30
2023/01/22 12:59:35;;;;;;;11.90;6.07;;;2.70;99.90;;;;;;5136087;27;20467;-30
2023/01/22 13:02:17;;;;;;;10.00;5.65;;;2.80;99.90;;;;;;5135106;27;20055;-30
2023/01/22 13:04:43;;;;;;;9.20;5.78;;;2.70;99.90;;;;;;5100307;27;20054;-31
2023/01/22 13:07:32;;;;;;;11.25;4.75;;;2.70;99.90;;;;;;5135792;27;20118;-30
2023/01/22 13:10:03;;;;;;;11.50;5.85;;;2.70;99.90;;;;;;5135468;27;20054;-30
2023/01/22 13:12:46;;;;;;;7.97;4.93;;;2.70;1.00;;;;;;5134934;27;20043;-30
2023/01/22 13:15:31;;;;;;;9.50;6.00;;;2.80;1.00;;;;;;5116612;27;20043;-30